createdAt,value
2019-05-18T00:02:08.678Z,18.57
2019-05-18T00:04:39.057Z,17.25
2019-05-18T00:07:09.755Z,19.10
2019-05-18T00:09:40.519Z,18.35
2019-05-18T00:12:11.511Z,17.32
2019-05-18T00:14:41.930Z,18.67
2019-05-18T00:17:24.570Z,19.20
2019-05-18T00:19:45.862Z,19.77
2019-05-18T00:22:17.201Z,19.67
2019-05-18T00:24:47.561Z,19.50
2019-05-18T00:27:21.211Z,19.73
2019-05-18T00:29:51.552Z,19.23
2019-05-18T00:32:25.245Z,20.85
2019-05-18T00:34:55.567Z,19.77
2019-05-18T00:37:26.949Z,19.87
2019-05-18T00:39:57.304Z,18.82
2019-05-18T00:42:28.848Z,20.40
2019-05-18T00:44:59.213Z,20.08
2019-05-18T00:47:40.861Z,19.07
2019-05-18T00:50:01.677Z,21.15
2019-05-18T00:52:34.892Z,19.87
2019-05-18T00:55:08.109Z,19.40
2019-05-18T00:57:38.719Z,20.00
2019-05-18T01:00:10.467Z,18.27
2019-05-18T01:02:43.731Z,20.72
2019-05-18T01:05:14.721Z,19.80
2019-05-18T01:07:46.056Z,19.65
2019-05-18T01:10:16.798Z,17.45
2019-05-18T01:12:48.433Z,19.95
2019-05-18T01:15:19.772Z,20.70
2019-05-18T01:17:57.473Z,20.05
2019-05-18T01:20:24.742Z,19.20
2019-05-18T01:22:55.366Z,20.60
2019-05-18T01:25:25.732Z,17.73
2019-05-18T01:27:57.665Z,19.98
2019-05-18T01:30:28.316Z,19.77
2019-05-18T01:33:01.160Z,19.75
2019-05-18T01:35:31.497Z,18.17
2019-05-18T01:38:04.061Z,19.25
2019-05-18T01:40:34.547Z,19.70
2019-05-18T01:43:05.438Z,19.57
2019-05-18T01:45:36.068Z,18.40
2019-05-18T01:48:13.969Z,19.67
2019-05-18T01:50:38.624Z,19.52
2019-05-18T01:53:09.697Z,19.27
2019-05-18T01:55:40.178Z,20.12
2019-05-18T01:58:12.056Z,19.90
2019-05-18T02:00:42.314Z,20.57
2019-05-18T02:03:14.263Z,20.32
2019-05-18T02:05:44.770Z,19.75
2019-05-18T02:08:15.609Z,19.23
2019-05-18T02:10:46.131Z,20.25
2019-05-18T02:13:18.495Z,20.25
2019-05-18T02:15:48.926Z,19.50
2019-05-18T02:18:28.781Z,20.92
2019-05-18T02:20:51.634Z,20.35
2019-05-18T02:23:24.914Z,19.82
2019-05-18T02:25:55.284Z,20.80
2019-05-18T02:28:27.256Z,19.45
2019-05-18T02:30:57.504Z,20.45
2019-05-18T02:33:29.276Z,19.23
2019-05-18T02:35:59.606Z,22.00
2019-05-18T02:38:30.019Z,21.45
2019-05-18T02:41:00.278Z,20.88
2019-05-18T02:43:31.897Z,20.82
2019-05-18T02:46:02.560Z,19.80
2019-05-18T02:48:48.871Z,20.20
2019-05-18T02:51:06.192Z,19.92
2019-05-18T02:53:36.793Z,20.80
2019-05-18T02:56:07.497Z,20.68
2019-05-18T02:58:38.133Z,21.87
2019-05-18T03:01:08.481Z,21.02
2019-05-18T03:03:39.126Z,20.55
2019-05-18T03:06:09.864Z,21.12
2019-05-18T03:08:40.555Z,23.02
2019-05-18T03:11:10.888Z,21.20
2019-05-18T03:13:43.853Z,21.25
2019-05-18T03:16:14.247Z,21.45
2019-05-18T03:18:45.512Z,21.37
2019-05-18T03:21:16.266Z,21.93
2019-05-18T03:23:47.728Z,20.80
2019-05-18T03:26:18.079Z,21.12
2019-05-18T03:28:49.700Z,20.72
2019-05-18T03:31:19.991Z,21.65
2019-05-18T03:33:51.675Z,20.92
2019-05-18T03:36:22.018Z,23.80
2019-05-18T03:38:52.386Z,23.27
2019-05-18T03:41:23.142Z,22.02
2019-05-18T03:43:54.808Z,23.38
2019-05-18T03:46:25.134Z,22.73
2019-05-18T03:48:55.503Z,23.25
2019-05-18T03:51:25.862Z,22.35
2019-05-18T03:53:57.119Z,22.73
2019-05-18T03:56:27.440Z,23.80
2019-05-18T03:58:57.735Z,25.10
2019-05-18T04:01:28.665Z,21.75
2019-05-18T04:04:00.746Z,23.35
2019-05-18T04:06:32.111Z,22.05
2019-05-18T04:09:02.440Z,24.50
2019-05-18T04:11:32.959Z,22.48
2019-05-18T04:14:07.874Z,23.05
2019-05-18T04:16:35.760Z,26.33
2019-05-18T04:19:06.085Z,23.47
2019-05-18T04:21:36.911Z,21.45
2019-05-18T04:24:07.429Z,22.45
2019-05-18T04:26:38.465Z,22.70
2019-05-18T04:29:10.328Z,24.20
2019-05-18T04:31:43.893Z,22.37
2019-05-18T04:34:14.344Z,24.02
2019-05-18T04:36:44.673Z,23.32
2019-05-18T04:39:15.198Z,23.47
2019-05-18T04:41:45.696Z,23.80
2019-05-18T04:44:16.598Z,25.02
2019-05-18T04:46:46.885Z,24.45
2019-05-18T04:49:18.565Z,23.07
2019-05-18T04:51:49.130Z,24.35
2019-05-18T04:54:19.767Z,23.57
2019-05-18T04:56:50.019Z,24.20
2019-05-18T04:59:20.462Z,24.77
2019-05-18T05:01:52.689Z,22.70
2019-05-18T05:04:24.166Z,24.63
2019-05-18T05:06:54.495Z,23.38
2019-05-18T05:09:26.503Z,24.12
2019-05-18T05:11:56.970Z,24.70
2019-05-18T05:14:28.835Z,23.57
2019-05-18T05:16:59.152Z,23.47
2019-05-18T05:19:29.888Z,20.68
2019-05-18T05:22:00.596Z,23.85
2019-05-18T05:24:31.490Z,22.85
2019-05-18T05:27:02.460Z,23.15
2019-05-18T05:29:32.817Z,24.32
2019-05-18T05:32:04.468Z,23.85
2019-05-18T05:34:36.086Z,22.15
2019-05-18T05:37:06.448Z,22.70
2019-05-18T05:39:37.975Z,22.45
2019-05-18T05:42:08.301Z,21.87
2019-05-18T05:44:39.804Z,23.50
2019-05-18T05:47:10.161Z,21.70
2019-05-18T05:49:40.825Z,23.65
2019-05-18T05:52:11.563Z,22.90
2019-05-18T05:54:43.857Z,21.20
2019-05-18T05:57:15.383Z,22.52
2019-05-18T05:59:45.802Z,21.70
2019-05-18T06:02:16.140Z,23.32
2019-05-18T06:04:47.396Z,20.72
2019-05-18T06:07:17.762Z,23.75
2019-05-18T06:09:48.941Z,23.15
2019-05-18T06:12:20.668Z,23.65
2019-05-18T06:14:51.657Z,24.35
2019-05-18T06:17:22.062Z,20.60
2019-05-18T06:19:53.608Z,20.97
2019-05-18T06:22:24.338Z,21.82
2019-05-18T06:24:57.124Z,19.98
2019-05-18T06:27:27.544Z,21.07
2019-05-18T06:29:59.330Z,22.73
2019-05-18T06:32:29.755Z,22.95
2019-05-18T06:35:00.151Z,19.98
2019-05-18T06:37:30.411Z,24.07
2019-05-18T06:40:00.792Z,21.02
2019-05-18T06:42:31.557Z,22.05
2019-05-18T06:45:01.846Z,22.32
2019-05-18T06:47:32.705Z,23.83
2019-05-18T06:50:03.708Z,24.23
2019-05-18T06:52:35.023Z,21.95
2019-05-18T06:55:06.410Z,20.35
2019-05-18T06:57:38.483Z,22.00
2019-05-18T07:00:14.343Z,22.95
2019-05-18T07:02:45.741Z,22.13
2019-05-18T07:05:16.717Z,22.80
2019-05-18T07:07:48.171Z,24.12
2019-05-18T07:10:18.538Z,22.42
2019-05-18T07:12:48.830Z,23.85
2019-05-18T07:15:21.193Z,22.95
2019-05-18T07:17:58.024Z,23.98
2019-05-18T07:20:28.471Z,23.35
2019-05-18T07:22:58.807Z,24.37
2019-05-18T07:25:29.764Z,25.10
2019-05-18T07:28:01.739Z,23.45
2019-05-18T07:30:32.585Z,24.10
2019-05-18T07:33:02.953Z,25.97
2019-05-18T07:35:33.595Z,24.47
2019-05-18T07:38:03.923Z,23.35
2019-05-18T07:40:34.670Z,22.62
2019-05-18T07:43:04.999Z,22.17
2019-05-18T07:45:35.306Z,22.40
2019-05-18T07:48:06.234Z,22.55
2019-05-18T07:50:37.079Z,22.82
2019-05-18T07:53:09.092Z,19.90
2019-05-18T07:55:39.668Z,23.57
2019-05-18T07:58:11.715Z,20.95
2019-05-18T08:00:42.981Z,19.10
2019-05-18T08:03:13.303Z,19.65
2019-05-18T08:05:43.814Z,21.35
2019-05-18T08:08:14.365Z,19.12
2019-05-18T08:10:45.017Z,20.50
2019-05-18T08:13:15.511Z,19.27
2019-05-18T08:15:46.953Z,18.48
2019-05-18T08:18:18.408Z,19.07
2019-05-18T08:20:48.783Z,16.50
2019-05-18T08:23:19.365Z,17.32
2019-05-18T08:25:49.734Z,17.87
2019-05-18T08:28:22.448Z,15.32
2019-05-18T08:30:55.634Z,15.15
2019-05-18T08:33:26.029Z,14.28
2019-05-18T08:35:57.542Z,15.65
2019-05-18T08:38:28.034Z,14.05
2019-05-18T08:40:59.906Z,16.57
2019-05-18T08:43:30.456Z,15.13
2019-05-18T08:46:00.866Z,15.25
2019-05-18T08:48:31.621Z,13.60
2019-05-18T08:51:02.943Z,14.87
2019-05-18T08:53:33.831Z,13.43
2019-05-18T08:56:04.185Z,12.78
2019-05-18T08:58:35.244Z,14.25
2019-05-18T09:01:05.841Z,12.43
2019-05-18T09:03:36.246Z,12.58
2019-05-18T09:06:06.518Z,13.83
2019-05-18T09:08:37.042Z,13.38
2019-05-18T09:11:08.195Z,11.97
2019-05-18T09:13:38.591Z,12.45
2019-05-18T09:16:09.103Z,11.88
2019-05-18T09:18:39.686Z,11.68
2019-05-18T09:21:11.139Z,12.88
2019-05-18T09:23:42.006Z,11.48
2019-05-18T09:26:12.254Z,10.48
2019-05-18T09:28:45.772Z,11.75
2019-05-18T09:31:17.663Z,11.70
2019-05-18T09:33:48.464Z,11.22
2019-05-18T09:36:19.485Z,12.10
2019-05-18T09:38:49.767Z,11.85
2019-05-18T09:41:20.392Z,10.55
2019-05-18T09:43:51.475Z,10.45
2019-05-18T09:46:21.968Z,12.13
2019-05-18T09:48:52.990Z,11.57
2019-05-18T09:51:24.116Z,10.70
2019-05-18T09:53:55.438Z,9.68
2019-05-18T09:56:25.764Z,10.98
2019-05-18T09:58:56.144Z,10.18
2019-05-18T10:01:27.369Z,11.00
2019-05-18T10:03:57.697Z,9.85
2019-05-18T10:06:31.539Z,9.50
2019-05-18T10:09:04.947Z,11.35
2019-05-18T10:11:38.526Z,9.78
2019-05-18T10:14:10.108Z,10.58
2019-05-18T10:16:40.533Z,10.90
2019-05-18T10:19:11.101Z,10.82
2019-05-18T10:21:41.592Z,11.97
2019-05-18T10:24:12.104Z,10.00
2019-05-18T10:26:42.439Z,10.82
2019-05-18T10:29:12.828Z,9.90
2019-05-18T10:31:43.412Z,9.33
2019-05-18T10:34:14.829Z,9.45
2019-05-18T10:36:46.311Z,9.83
2019-05-18T10:39:17.240Z,9.43
2019-05-18T10:41:47.704Z,9.98
2019-05-18T10:44:19.303Z,10.43
2019-05-18T10:46:49.593Z,5.55
2019-05-18T10:49:20.359Z,5.75
2019-05-18T10:51:51.602Z,10.38
2019-05-18T10:54:23.123Z,10.88
2019-05-18T10:56:53.789Z,9.58
2019-05-18T10:59:24.121Z,10.13
2019-05-18T11:01:55.079Z,9.65
2019-05-18T11:04:29.094Z,11.12
2019-05-18T11:07:01.523Z,9.33
2019-05-18T11:09:31.787Z,11.00
2019-05-18T11:12:04.755Z,10.93
2019-05-18T11:14:36.160Z,9.63
2019-05-18T11:17:07.998Z,9.90
2019-05-18T11:19:38.358Z,9.83
2019-05-18T11:22:08.666Z,9.53
2019-05-18T11:24:40.032Z,9.08
2019-05-18T11:27:11.645Z,9.95
2019-05-18T11:29:41.974Z,8.83
2019-05-18T11:32:13.614Z,9.48
2019-05-18T11:34:44.383Z,8.55
2019-05-18T11:37:15.537Z,7.20
2019-05-18T11:39:45.858Z,6.90
2019-05-18T11:42:17.016Z,6.70
2019-05-18T11:44:48.616Z,5.58
2019-05-18T11:47:19.126Z,4.97
2019-05-18T11:49:49.745Z,4.42
2019-05-18T11:52:21.990Z,4.40
2019-05-18T11:54:53.209Z,3.60
2019-05-18T11:57:23.796Z,3.10
2019-05-18T11:59:54.586Z,4.03
2019-05-18T12:02:25.010Z,4.03
2019-05-18T12:04:55.636Z,4.55
2019-05-18T12:07:28.243Z,4.67
2019-05-18T12:09:58.646Z,3.98
2019-05-18T12:12:29.688Z,4.90
2019-05-18T12:15:00.005Z,5.15
2019-05-18T12:17:30.941Z,5.67
2019-05-18T12:20:01.251Z,4.33
2019-05-18T12:22:32.399Z,4.47
2019-05-18T12:25:04.168Z,4.37
2019-05-18T12:27:34.952Z,4.78
2019-05-18T12:30:10.334Z,4.15
2019-05-18T12:32:42.537Z,3.92
2019-05-18T12:35:13.775Z,5.33
2019-05-18T12:37:45.096Z,4.53
2019-05-18T12:40:18.622Z,4.40
2019-05-18T12:42:50.552Z,4.78
2019-05-18T12:45:22.358Z,4.75
2019-05-18T12:47:53.045Z,4.92
2019-05-18T12:50:24.823Z,4.62
2019-05-18T12:52:55.338Z,5.08
2019-05-18T12:55:26.133Z,5.37
2019-05-18T12:57:56.998Z,5.53
2019-05-18T13:00:27.705Z,4.37
2019-05-18T13:02:58.440Z,4.25
2019-05-18T13:05:30.390Z,4.35
2019-05-18T13:08:04.014Z,3.85
2019-05-18T13:10:35.322Z,3.22
2019-05-18T13:13:06.097Z,3.12
2019-05-18T13:15:37.232Z,3.92
2019-05-18T13:18:07.671Z,3.60
2019-05-18T13:20:37.994Z,3.60
2019-05-18T13:23:08.720Z,3.20
2019-05-18T13:25:38.959Z,3.02
2019-05-18T13:28:09.278Z,3.10
2019-05-18T13:30:39.696Z,3.20
2019-05-18T13:33:10.550Z,3.00
2019-05-18T13:35:45.260Z,2.80
2019-05-18T13:38:14.505Z,3.67
2019-05-18T13:40:44.836Z,2.37
2019-05-18T13:43:15.807Z,3.00
2019-05-18T13:45:46.307Z,3.72
2019-05-18T13:48:17.055Z,2.65
2019-05-18T13:50:47.388Z,3.60
2019-05-18T13:53:18.179Z,4.25
2019-05-18T13:55:50.173Z,3.85
2019-05-18T13:58:20.537Z,4.03
2019-05-18T14:00:53.915Z,4.20
2019-05-18T14:03:24.206Z,5.50
2019-05-18T14:05:54.811Z,2.80
2019-05-18T14:08:26.512Z,3.80
2019-05-18T14:10:56.928Z,4.22
2019-05-18T14:13:27.222Z,4.25
2019-05-18T14:15:57.506Z,4.00
2019-05-18T14:18:27.813Z,3.50
2019-05-18T14:20:58.101Z,3.50
2019-05-18T14:23:29.035Z,2.67
2019-05-18T14:25:59.847Z,2.50
2019-05-18T14:28:31.311Z,2.45
2019-05-18T14:31:02.274Z,2.72
2019-05-18T14:33:34.658Z,2.27
2019-05-18T14:36:05.686Z,1.92
2019-05-18T14:38:36.047Z,2.00
2019-05-18T14:41:06.442Z,1.90
2019-05-18T14:43:40.365Z,1.82
2019-05-18T14:48:40.860Z,1.87
2019-05-18T14:51:11.641Z,2.10
2019-05-18T14:53:42.033Z,2.25
2019-05-18T14:56:12.670Z,2.58
2019-05-18T14:58:43.403Z,2.80
2019-05-18T15:01:15.277Z,3.17
2019-05-18T15:03:45.719Z,2.47
2019-05-18T15:06:16.010Z,2.80
2019-05-18T15:08:48.177Z,2.20
2019-05-18T15:11:18.489Z,3.27
2019-05-18T15:13:49.480Z,2.72
2019-05-18T15:16:20.253Z,1.77
2019-05-18T15:18:51.532Z,2.33
2019-05-18T15:21:21.763Z,2.22
2019-05-18T15:23:52.477Z,1.82
2019-05-18T15:26:23.973Z,2.33
2019-05-18T15:28:54.460Z,2.98
2019-05-18T15:31:24.940Z,3.40
2019-05-18T15:33:56.419Z,5.33
2019-05-18T15:36:26.735Z,3.83
2019-05-18T15:38:57.831Z,3.67
2019-05-18T15:41:28.140Z,4.28
2019-05-18T15:43:59.423Z,3.62
2019-05-18T15:46:29.762Z,3.98
2019-05-18T15:49:00.813Z,3.90
2019-05-18T15:51:31.340Z,4.78
2019-05-18T15:54:02.481Z,5.12
2019-05-18T15:56:32.803Z,4.72
2019-05-18T15:59:03.240Z,6.90
2019-05-18T16:01:33.559Z,8.75
2019-05-18T16:04:06.558Z,9.98
2019-05-18T16:06:36.626Z,9.18
2019-05-18T16:09:08.210Z,9.38
2019-05-18T16:11:39.170Z,9.18
2019-05-18T16:14:11.757Z,9.38
2019-05-18T16:16:42.151Z,9.40
2019-05-18T16:19:13.017Z,9.93
2019-05-18T16:21:43.336Z,12.30
2019-05-18T16:24:14.080Z,11.68
2019-05-18T16:26:44.469Z,12.50
2019-05-18T16:29:14.810Z,12.78
2019-05-18T16:31:45.223Z,12.80
2019-05-18T16:34:17.739Z,11.88
2019-05-18T16:36:48.273Z,13.53
2019-05-18T16:39:20.287Z,12.28
2019-05-18T16:41:50.535Z,16.60
2019-05-18T16:44:21.437Z,15.60
2019-05-18T16:46:52.368Z,15.75
2019-05-18T16:49:23.448Z,16.30
2019-05-18T16:51:53.783Z,15.13
2019-05-18T16:54:24.517Z,13.78
2019-05-18T16:56:54.861Z,13.95
2019-05-18T16:59:25.440Z,16.77
2019-05-18T17:01:55.841Z,13.93
2019-05-18T17:04:27.211Z,16.35
2019-05-18T17:06:57.770Z,11.10
2019-05-18T17:09:28.603Z,11.68
2019-05-18T17:11:58.951Z,11.33
2019-05-18T17:14:31.063Z,9.15
2019-05-18T17:17:01.379Z,8.98
2019-05-18T17:19:31.762Z,8.78
2019-05-18T17:22:02.119Z,10.45
2019-05-18T17:24:33.525Z,10.28
2019-05-18T17:27:03.919Z,9.28
2019-05-18T17:29:34.306Z,9.63
2019-05-18T17:32:04.993Z,11.15
2019-05-18T17:34:36.811Z,10.05
2019-05-18T17:37:07.231Z,10.13
2019-05-18T17:39:41.251Z,11.38
2019-05-18T17:42:12.622Z,11.77
2019-05-18T17:44:46.072Z,10.23
2019-05-18T17:47:16.903Z,10.82
2019-05-18T17:49:48.585Z,10.60
2019-05-18T17:52:19.258Z,10.40
2019-05-18T17:54:50.760Z,10.20
2019-05-18T17:57:21.681Z,10.63
2019-05-18T17:59:54.674Z,12.63
2019-05-18T18:02:24.996Z,11.88
2019-05-18T18:04:56.240Z,12.60
2019-05-18T18:07:26.572Z,12.60
2019-05-18T18:09:58.634Z,11.83
2019-05-18T18:12:28.969Z,12.18
2019-05-18T18:14:59.344Z,12.58
2019-05-18T18:17:30.023Z,12.70
2019-05-18T18:20:00.428Z,12.68
2019-05-18T18:22:30.843Z,14.65
2019-05-18T18:25:03.025Z,13.40
2019-05-18T18:27:33.853Z,15.18
2019-05-18T18:30:06.936Z,13.83
2019-05-18T18:32:38.078Z,14.50
2019-05-18T18:35:13.169Z,14.50
2019-05-18T18:37:43.499Z,13.25
2019-05-18T18:40:14.501Z,15.63
2019-05-18T18:42:46.126Z,15.93
2019-05-18T18:45:19.252Z,14.43
2019-05-18T18:47:49.600Z,15.63
2019-05-18T18:50:25.253Z,15.90
2019-05-18T18:52:55.683Z,15.08
2019-05-18T18:55:26.250Z,15.40
2019-05-18T18:57:56.563Z,15.55
2019-05-18T19:00:27.443Z,15.95
2019-05-18T19:02:57.788Z,14.23
2019-05-18T19:05:28.742Z,15.53
2019-05-18T19:07:59.495Z,16.87
2019-05-18T19:10:31.577Z,16.45
2019-05-18T19:13:01.908Z,16.23
2019-05-18T19:15:33.855Z,15.70
2019-05-18T19:18:04.570Z,15.08
2019-05-18T19:20:35.606Z,15.78
2019-05-18T19:23:06.175Z,15.58
2019-05-18T19:25:39.016Z,16.15
2019-05-18T19:28:09.279Z,14.93
2019-05-18T19:30:39.676Z,14.78
2019-05-18T19:33:10.347Z,14.73
2019-05-18T19:35:43.018Z,14.45
2019-05-18T19:38:13.440Z,14.95
2019-05-18T19:40:44.372Z,15.70
2019-05-18T19:43:15.976Z,14.95
2019-05-18T19:45:46.981Z,14.13
2019-05-18T19:48:17.764Z,16.02
2019-05-18T19:50:48.107Z,17.60
2019-05-18T19:53:18.887Z,15.20
2019-05-18T19:55:49.659Z,14.28
2019-05-18T19:58:20.247Z,16.15
2019-05-18T20:00:50.568Z,15.93
2019-05-18T20:03:21.252Z,16.75
2019-05-18T20:05:51.556Z,15.72
2019-05-18T20:08:21.858Z,15.60
2019-05-18T20:10:52.531Z,16.23
2019-05-18T20:13:23.109Z,16.75
2019-05-18T20:15:53.969Z,18.65
2019-05-18T20:18:24.305Z,17.45
2019-05-18T20:20:54.929Z,16.95
2019-05-18T20:23:26.397Z,19.12
2019-05-18T20:25:56.796Z,17.15
2019-05-18T20:28:28.663Z,17.70
2019-05-18T20:30:58.950Z,18.27
2019-05-18T20:33:30.082Z,18.30
2019-05-18T20:36:01.192Z,16.55
2019-05-18T20:38:31.584Z,18.23
2019-05-18T20:41:02.321Z,16.90
2019-05-18T20:43:32.865Z,17.20
2019-05-18T20:46:03.212Z,18.15
2019-05-18T20:48:33.498Z,16.42
2019-05-18T20:51:04.831Z,16.32
2019-05-18T20:53:35.261Z,16.67
2019-05-18T20:56:06.053Z,18.35
2019-05-18T20:58:39.967Z,18.02
2019-05-18T21:01:08.818Z,18.40
2019-05-18T21:03:39.729Z,17.60
2019-05-18T21:06:10.105Z,17.25
2019-05-18T21:08:40.417Z,17.80
2019-05-18T21:11:12.036Z,18.90
2019-05-18T21:13:42.457Z,19.07
2019-05-18T21:16:15.147Z,20.77
2019-05-18T21:18:45.864Z,18.42
2019-05-18T21:21:16.282Z,19.48
2019-05-18T21:23:46.776Z,19.62
2019-05-18T21:26:17.295Z,19.67
2019-05-18T21:28:56.445Z,19.60
2019-05-18T21:31:20.790Z,18.17
2019-05-18T21:33:51.183Z,19.67
2019-05-18T21:36:21.814Z,19.75
2019-05-18T21:38:52.078Z,20.15
2019-05-18T21:41:22.970Z,21.97
2019-05-18T21:43:53.985Z,22.80
2019-05-18T21:46:24.452Z,24.47
2019-05-18T21:48:55.311Z,24.35
2019-05-18T21:51:25.683Z,23.98
2019-05-18T21:53:56.714Z,26.52
2019-05-18T21:56:27.933Z,27.17
2019-05-18T21:59:10.590Z,26.33
2019-05-18T22:01:30.777Z,24.35
2019-05-18T22:04:01.980Z,24.57
2019-05-18T22:06:32.446Z,27.20
2019-05-18T22:09:04.400Z,24.47
2019-05-18T22:11:35.962Z,26.15
2019-05-18T22:14:07.195Z,26.42
2019-05-18T22:16:39.478Z,26.75
2019-05-18T22:19:09.887Z,26.02
2019-05-18T22:21:41.157Z,26.40
2019-05-18T22:24:13.158Z,27.35
2019-05-18T22:26:44.965Z,26.17
2019-05-18T22:29:15.374Z,26.62
2019-05-18T22:31:45.681Z,26.05
2019-05-18T22:34:16.453Z,25.92
2019-05-18T22:36:47.693Z,26.73
2019-05-18T22:39:18.214Z,27.15
2019-05-18T22:41:49.444Z,26.93
2019-05-18T22:44:20.278Z,25.40
2019-05-18T22:46:52.556Z,27.13
2019-05-18T22:49:22.934Z,27.22
2019-05-18T22:51:53.718Z,26.60
2019-05-18T22:54:24.463Z,27.02
2019-05-18T22:56:55.587Z,27.00
2019-05-18T22:59:26.736Z,27.98
2019-05-18T23:01:57.153Z,27.02
2019-05-18T23:04:27.906Z,23.45
2019-05-18T23:07:00.127Z,25.05
2019-05-18T23:09:31.813Z,24.07
2019-05-18T23:12:02.963Z,25.40
2019-05-18T23:14:33.369Z,23.62
2019-05-18T23:17:04.725Z,24.32
2019-05-18T23:19:35.136Z,23.62
2019-05-18T23:22:05.469Z,23.18
2019-05-18T23:24:35.901Z,23.45
2019-05-18T23:27:06.518Z,24.05
2019-05-18T23:29:36.891Z,23.15
2019-05-18T23:32:07.245Z,22.10
2019-05-18T23:34:37.923Z,20.92
2019-05-18T23:37:10.169Z,22.60
2019-05-18T23:39:44.379Z,22.77
2019-05-18T23:42:16.248Z,20.45
2019-05-18T23:44:46.591Z,22.95
2019-05-18T23:47:17.850Z,24.18
2019-05-18T23:49:48.631Z,20.88
2019-05-18T23:52:19.884Z,22.35
2019-05-18T23:54:50.213Z,22.58
2019-05-18T23:57:20.955Z,21.97
2019-05-18T23:59:53.013Z,22.82
